Stornoway — WDC7908 — position and weather

sailwx.info

Track history (hours):
 
Tides and Currents Weather Stations Pressure Air Temp Water Temp Dewpoint Dewpoint Depression Visibility Wind Speed Wind Dir Waves Ship Positions

Stornoway

Owner: Matthews, William, Bainbridge Island, WA. More information available from US FCC via Universal Licensing System and Coast Guard Vessel Documentation Center.

Last reported at 2015-Jan-06 20:33 UTC. Time now 2015-Mar-04 12:54 UTC.
Position N 47°43' W 122°31'.
Warning: this ship's position is 56 days out of date.

Length 13 m.

Type: Pleasure craft. MMSI: 367078810.

Date/timePositionNaut miles runAvg speedWind from/ knotsBaromVisibWave heightAir tempDewpointWater temp
2015-Jan-06 20:33N 47°43' W 122°31'1 8.8
2015-Jan-06 20:26N 47°42' W 122°30'1 0.8
2015-Jan-06 19:33N 47°42' W 122°29'0 8.1
2015-Jan-06 19:31N 47°42' W 122°29'  
2015-Jan-03 22:18N 47°42' W 122°32'0 7.1
2015-Jan-03 22:15N 47°43' W 122°32'6 8.3
2015-Jan-03 21:33N 47°48' W 122°28'0 8.6
2015-Jan-03 21:30N 47°48' W 122°28'10 9.5
2015-Jan-03 20:29N 47°57' W 122°34'37 9.3
2015-Jan-03 16:33N 48°30' W 122°58'3 2.8
2015-Jan-03 15:31N 48°32' W 123°01'0 0.0
2015-Jan-03 14:31N 48°32' W 123°01'0 0.0
2015-Jan-03 13:31N 48°32' W 123°01'0 0.0
2015-Jan-03 12:31N 48°32' W 123°01'0 0.0
2015-Jan-03 11:31N 48°32' W 123°01'0 0.0
2015-Jan-03 10:31N 48°32' W 123°01'0 0.0
2015-Jan-03 09:31N 48°32' W 123°01'0 0.0
2015-Jan-03 08:31N 48°32' W 123°01'0 0.0
2015-Jan-03 07:31N 48°32' W 123°01'0 0.0
2015-Jan-03 06:28N 48°32' W 123°01'0 0.0
2015-Jan-03 05:31N 48°32' W 123°01'0 0.0
2015-Jan-03 04:31N 48°32' W 123°01'0 0.0
2015-Jan-03 03:28N 48°32' W 123°01'0 0.0
2015-Jan-03 02:28N 48°32' W 123°01'0 0.0
2015-Jan-03 01:31N 48°32' W 123°01'0 0.0
2015-Jan-03 00:31N 48°32' W 123°01'0 0.0
2015-Jan-02 23:31N 48°32' W 123°01'0 0.0
2015-Jan-02 22:31N 48°32' W 123°01'0 0.0
2015-Jan-02 21:31N 48°32' W 123°01'0 0.0
2015-Jan-02 20:31N 48°32' W 123°01'0 0.0
2015-Jan-02 19:31N 48°32' W 123°01'7 1.7
2015-Jan-02 15:21N 48°37' W 123°09'0 0.0
2015-Jan-02 13:33N 48°37' W 123°09'0 0.0
2015-Jan-02 12:15N 48°37' W 123°09'0 0.0
2015-Jan-02 06:05N 48°37' W 123°09'0 0.0
2015-Jan-02 04:23N 48°37' W 123°09'0 0.0
2015-Jan-02 03:23N 48°37' W 123°09'0 0.0
2015-Jan-01 10:30N 48°37' W 123°09'  
2014-Dec-28 20:30N 48°40' W 122°44'8 8.5
2014-Dec-28 19:33N 48°34' W 122°36'14 0.6
2014-Dec-27 21:29N 48°20' W 122°32'  
Track history (hours):
 
Tides and Currents Weather Stations Pressure Air Temp Water Temp Dewpoint Dewpoint Depression Visibility Wind Speed Wind Dir Waves Ship Positions

Stornoway

Owner: Matthews, William, Bainbridge Island, WA. More information available from US FCC via Universal Licensing System and Coast Guard Vessel Documentation Center.

Last reported at 2015-Jan-06 20:33 UTC. Time now 2015-Mar-04 12:54 UTC.
Position N 47°43' W 122°31'.
Warning: this ship's position is 56 days out of date.

Length 13 m.

Type: Pleasure craft. MMSI: 367078810.

Date/timePositionNaut miles runAvg speedWind from/ knotsBaromVisibWave heightAir tempDewpointWater temp
2015-Jan-06 20:33N 47°43' W 122°31'1 8.8
2015-Jan-06 20:26N 47°42' W 122°30'1 0.8
2015-Jan-06 19:33N 47°42' W 122°29'0 8.1
2015-Jan-06 19:31N 47°42' W 122°29'  
2015-Jan-03 22:18N 47°42' W 122°32'0 7.1
2015-Jan-03 22:15N 47°43' W 122°32'6 8.3
2015-Jan-03 21:33N 47°48' W 122°28'0 8.6
2015-Jan-03 21:30N 47°48' W 122°28'10 9.5
2015-Jan-03 20:29N 47°57' W 122°34'37 9.3
2015-Jan-03 16:33N 48°30' W 122°58'3 2.8
2015-Jan-03 15:31N 48°32' W 123°01'0 0.0
2015-Jan-03 14:31N 48°32' W 123°01'0 0.0
2015-Jan-03 13:31N 48°32' W 123°01'0 0.0
2015-Jan-03 12:31N 48°32' W 123°01'0 0.0
2015-Jan-03 11:31N 48°32' W 123°01'0 0.0
2015-Jan-03 10:31N 48°32' W 123°01'0 0.0
2015-Jan-03 09:31N 48°32' W 123°01'0 0.0
2015-Jan-03 08:31N 48°32' W 123°01'0 0.0
2015-Jan-03 07:31N 48°32' W 123°01'0 0.0
2015-Jan-03 06:28N 48°32' W 123°01'0 0.0
2015-Jan-03 05:31N 48°32' W 123°01'0 0.0
2015-Jan-03 04:31N 48°32' W 123°01'0 0.0
2015-Jan-03 03:28N 48°32' W 123°01'0 0.0
2015-Jan-03 02:28N 48°32' W 123°01'0 0.0
2015-Jan-03 01:31N 48°32' W 123°01'0 0.0
2015-Jan-03 00:31N 48°32' W 123°01'0 0.0
2015-Jan-02 23:31N 48°32' W 123°01'0 0.0
2015-Jan-02 22:31N 48°32' W 123°01'0 0.0
2015-Jan-02 21:31N 48°32' W 123°01'0 0.0
2015-Jan-02 20:31N 48°32' W 123°01'0 0.0
2015-Jan-02 19:31N 48°32' W 123°01'7 1.7
2015-Jan-02 15:21N 48°37' W 123°09'0 0.0
2015-Jan-02 13:33N 48°37' W 123°09'0 0.0
2015-Jan-02 12:15N 48°37' W 123°09'0 0.0
2015-Jan-02 06:05N 48°37' W 123°09'0 0.0
2015-Jan-02 04:23N 48°37' W 123°09'0 0.0
2015-Jan-02 03:23N 48°37' W 123°09'0 0.0
2015-Jan-01 10:30N 48°37' W 123°09'  
2014-Dec-28 20:30N 48°40' W 122°44'8 8.5
2014-Dec-28 19:33N 48°34' W 122°36'14 0.6
2014-Dec-27 21:29N 48°20' W 122°32'  

Dump ship's entire track history